sensor_id;sensor_type;location;lat;lon;timestamp;pressure;altitude;pressure_sealevel;temperature;humidity
68508;BME280;55510;49.560;19.090;2023-01-30T00:02:47;96657.78;;;-6.32;83.93
68508;BME280;55510;49.560;19.090;2023-01-30T00:05:48;96647.69;;;-6.35;84.09
68508;BME280;55510;49.560;19.090;2023-01-30T00:08:49;96639.50;;;-6.31;84.04
68508;BME280;55510;49.560;19.090;2023-01-30T00:11:50;96636.50;;;-6.36;83.58
68508;BME280;55510;49.560;19.090;2023-01-30T00:14:51;96631.84;;;-6.42;83.63
68508;BME280;55510;49.560;19.090;2023-01-30T00:17:51;96617.78;;;-6.49;84.00
68508;BME280;55510;49.560;19.090;2023-01-30T00:21:00;96620.84;;;-6.65;83.92
68508;BME280;55510;49.560;19.090;2023-01-30T00:24:01;96606.03;;;-6.85;84.63
68508;BME280;55510;49.560;19.090;2023-01-30T00:27:01;96600.25;;;-6.98;85.22
68508;BME280;55510;49.560;19.090;2023-01-30T00:30:02;96598.63;;;-6.99;84.94
68508;BME280;55510;49.560;19.090;2023-01-30T00:33:05;96590.19;;;-6.91;84.81
68508;BME280;55510;49.560;19.090;2023-01-30T00:36:06;96588.78;;;-7.05;84.93
68508;BME280;55510;49.560;19.090;2023-01-30T00:39:07;96586.56;;;-7.10;85.18
68508;BME280;55510;49.560;19.090;2023-01-30T00:42:08;96582.41;;;-7.01;84.87
68508;BME280;55510;49.560;19.090;2023-01-30T00:45:28;96571.53;;;-6.95;84.57
68508;BME280;55510;49.560;19.090;2023-01-30T00:48:47;96567.88;;;-7.14;84.50
68508;BME280;55510;49.560;19.090;2023-01-30T00:51:48;96559.44;;;-7.37;85.22
68508;BME280;55510;49.560;19.090;2023-01-30T00:54:48;96549.94;;;-7.58;85.79
68508;BME280;55510;49.560;19.090;2023-01-30T00:57:50;96545.84;;;-7.60;86.38
68508;BME280;55510;49.560;19.090;2023-01-30T01:00:51;96547.91;;;-7.54;86.53
68508;BME280;55510;49.560;19.090;2023-01-30T01:03:52;96543.25;;;-7.60;86.56
68508;BME280;55510;49.560;19.090;2023-01-30T01:06:53;96536.94;;;-7.67;86.82
68508;BME280;55510;49.560;19.090;2023-01-30T01:09:53;96532.03;;;-7.70;87.17
68508;BME280;55510;49.560;19.090;2023-01-30T01:12:54;96519.88;;;-7.80;87.28
68508;BME280;55510;49.560;19.090;2023-01-30T01:15:55;96511.97;;;-7.99;88.06
68508;BME280;55510;49.560;19.090;2023-01-30T01:18:55;96503.66;;;-8.03;88.65
68508;BME280;55510;49.560;19.090;2023-01-30T01:21:56;96511.22;;;-7.90;88.42
68508;BME280;55510;49.560;19.090;2023-01-30T01:24:57;96505.38;;;-7.92;88.71
68508;BME280;55510;49.560;19.090;2023-01-30T01:27:57;96495.22;;;-7.84;88.21
68508;BME280;55510;49.560;19.090;2023-01-30T01:30:58;96497.88;;;-7.95;88.84
68508;BME280;55510;49.560;19.090;2023-01-30T01:33:59;96496.88;;;-7.83;88.47
68508;BME280;55510;49.560;19.090;2023-01-30T01:36:59;96485.09;;;-7.76;88.13
68508;BME280;55510;49.560;19.090;2023-01-30T01:40:00;96474.50;;;-7.73;87.67
68508;BME280;55510;49.560;19.090;2023-01-30T01:43:22;96467.06;;;-7.66;87.39
68508;BME280;55510;49.560;19.090;2023-01-30T01:46:30;96466.66;;;-7.61;86.89
68508;BME280;55510;49.560;19.090;2023-01-30T01:49:34;96476.00;;;-7.70;86.66
68508;BME280;55510;49.560;19.090;2023-01-30T01:52:36;96456.41;;;-7.73;86.48
68508;BME280;55510;49.560;19.090;2023-01-30T01:55:39;96454.16;;;-7.87;86.45
68508;BME280;55510;49.560;19.090;2023-01-30T01:58:47;96439.88;;;-8.03;86.98
68508;BME280;55510;49.560;19.090;2023-01-30T02:01:49;96429.63;;;-8.14;87.04
68508;BME280;55510;49.560;19.090;2023-01-30T02:04:56;96422.88;;;-8.26;87.69
68508;BME280;55510;49.560;19.090;2023-01-30T02:08:28;96420.91;;;-8.34;89.05
68508;BME280;55510;49.560;19.090;2023-01-30T02:11:49;96421.75;;;-8.34;89.35
68508;BME280;55510;49.560;19.090;2023-01-30T02:14:55;96412.06;;;-8.20;88.30
68508;BME280;55510;49.560;19.090;2023-01-30T02:17:57;96419.84;;;-8.32;88.04
68508;BME280;55510;49.560;19.090;2023-01-30T02:45:01;96389.78;;;-8.75;93.41
68508;BME280;55510;49.560;19.090;2023-01-30T02:48:08;96385.03;;;-8.37;93.21
68508;BME280;55510;49.560;19.090;2023-01-30T02:51:17;96377.03;;;-8.55;91.98
68508;BME280;55510;49.560;19.090;2023-01-30T02:54:19;96382.44;;;-8.58;92.22
68508;BME280;55510;49.560;19.090;2023-01-30T02:57:24;96374.25;;;-8.64;91.64
68508;BME280;55510;49.560;19.090;2023-01-30T03:01:14;96373.44;;;-8.64;91.89
68508;BME280;55510;49.560;19.090;2023-01-30T03:14:26;96374.72;;;-8.58;89.88
68508;BME280;55510;49.560;19.090;2023-01-30T03:17:31;96371.69;;;-8.64;89.51
68508;BME280;55510;49.560;19.090;2023-01-30T03:20:36;96362.63;;;-8.58;88.61
68508;BME280;55510;49.560;19.090;2023-01-30T03:23:38;96361.56;;;-8.55;89.06
68508;BME280;55510;49.560;19.090;2023-01-30T03:26:48;96370.13;;;-8.55;88.99
68508;BME280;55510;49.560;19.090;2023-01-30T03:29:53;96361.63;;;-8.67;88.86
68508;BME280;55510;49.560;19.090;2023-01-30T03:32:53;96357.66;;;-8.71;89.24
68508;BME280;55510;49.560;19.090;2023-01-30T03:35:54;96354.22;;;-8.60;88.86
68508;BME280;55510;49.560;19.090;2023-01-30T03:38:55;96356.56;;;-8.68;88.57
68508;BME280;55510;49.560;19.090;2023-01-30T03:41:55;96339.78;;;-8.63;88.64
68508;BME280;55510;49.560;19.090;2023-01-30T03:44:56;96337.00;;;-8.71;88.66
68508;BME280;55510;49.560;19.090;2023-01-30T03:47:57;96334.09;;;-8.78;88.75
68508;BME280;55510;49.560;19.090;2023-01-30T03:50:57;96325.72;;;-8.91;88.90
68508;BME280;55510;49.560;19.090;2023-01-30T03:53:58;96321.06;;;-9.09;89.51
68508;BME280;55510;49.560;19.090;2023-01-30T03:56:59;96327.16;;;-8.98;89.78
68508;BME280;55510;49.560;19.090;2023-01-30T04:00:00;96312.00;;;-8.70;89.97
68508;BME280;55510;49.560;19.090;2023-01-30T04:03:00;96315.25;;;-8.57;89.11
68508;BME280;55510;49.560;19.090;2023-01-30T04:06:01;96316.88;;;-8.77;89.15
68508;BME280;55510;49.560;19.090;2023-01-30T04:09:02;96314.97;;;-8.33;87.65
68508;BME280;55510;49.560;19.090;2023-01-30T04:12:03;96305.06;;;-8.27;87.91
68508;BME280;55510;49.560;19.090;2023-01-30T04:15:04;96297.66;;;-8.11;87.29
68508;BME280;55510;49.560;19.090;2023-01-30T04:18:05;96296.03;;;-8.12;87.44
68508;BME280;55510;49.560;19.090;2023-01-30T04:21:06;96289.41;;;-8.05;87.53
68508;BME280;55510;49.560;19.090;2023-01-30T04:24:07;96278.38;;;-8.07;87.72
68508;BME280;55510;49.560;19.090;2023-01-30T04:27:07;96277.31;;;-8.04;88.01
68508;BME280;55510;49.560;19.090;2023-01-30T04:30:09;96271.06;;;-8.02;87.82
68508;BME280;55510;49.560;19.090;2023-01-30T04:33:10;96274.66;;;-7.83;87.59
68508;BME280;55510;49.560;19.090;2023-01-30T04:36:11;96279.84;;;-7.83;86.54
68508;BME280;55510;49.560;19.090;2023-01-30T04:39:11;96275.41;;;-7.71;86.11
68508;BME280;55510;49.560;19.090;2023-01-30T04:42:12;96275.13;;;-7.58;85.96
68508;BME280;55510;49.560;19.090;2023-01-30T04:45:13;96261.56;;;-7.40;84.58
68508;BME280;55510;49.560;19.090;2023-01-30T04:48:14;96261.44;;;-7.09;82.49
68508;BME280;55510;49.560;19.090;2023-01-30T04:51:15;96255.31;;;-6.89;80.23
68508;BME280;55510;49.560;19.090;2023-01-30T04:54:16;96257.63;;;-6.95;80.53
68508;BME280;55510;49.560;19.090;2023-01-30T04:57:16;96246.34;;;-7.14;81.13
68508;BME280;55510;49.560;19.090;2023-01-30T05:00:17;96250.69;;;-7.15;81.74
68508;BME280;55510;49.560;19.090;2023-01-30T05:03:18;96252.75;;;-6.99;80.26
68508;BME280;55510;49.560;19.090;2023-01-30T05:06:20;96244.44;;;-6.82;80.37
68508;BME280;55510;49.560;19.090;2023-01-30T05:09:20;96247.97;;;-6.83;80.53
68508;BME280;55510;49.560;19.090;2023-01-30T05:12:21;96241.16;;;-6.85;80.60
68508;BME280;55510;49.560;19.090;2023-01-30T05:15:22;96241.44;;;-6.88;80.64
68508;BME280;55510;49.560;19.090;2023-01-30T05:18:22;96247.81;;;-6.72;80.76
68508;BME280;55510;49.560;19.090;2023-01-30T05:21:25;96250.53;;;-6.64;80.62
68508;BME280;55510;49.560;19.090;2023-01-30T05:24:28;96253.94;;;-6.63;80.46
68508;BME280;55510;49.560;19.090;2023-01-30T05:27:28;96239.59;;;-6.48;80.36
68508;BME280;55510;49.560;19.090;2023-01-30T05:30:29;96231.97;;;-6.49;79.71
68508;BME280;55510;49.560;19.090;2023-01-30T05:33:29;96237.25;;;-6.41;79.58
68508;BME280;55510;49.560;19.090;2023-01-30T05:36:31;96219.56;;;-6.08;76.93
68508;BME280;55510;49.560;19.090;2023-01-30T05:39:31;96206.84;;;-6.01;77.01
68508;BME280;55510;49.560;19.090;2023-01-30T05:42:32;96197.34;;;-5.92;77.12
68508;BME280;55510;49.560;19.090;2023-01-30T05:45:32;96186.03;;;-5.91;76.93
68508;BME280;55510;49.560;19.090;2023-01-30T05:48:33;96182.34;;;-5.89;76.27
68508;BME280;55510;49.560;19.090;2023-01-30T05:51:34;96199.75;;;-5.81;75.73
68508;BME280;55510;49.560;19.090;2023-01-30T05:54:35;96196.50;;;-5.83;77.31
68508;BME280;55510;49.560;19.090;2023-01-30T05:57:35;96196.56;;;-5.75;77.71
68508;BME280;55510;49.560;19.090;2023-01-30T06:00:36;96191.81;;;-5.51;75.84
68508;BME280;55510;49.560;19.090;2023-01-30T06:03:37;96187.66;;;-5.62;77.12
68508;BME280;55510;49.560;19.090;2023-01-30T06:06:38;96188.81;;;-5.57;76.35
68508;BME280;55510;49.560;19.090;2023-01-30T06:09:38;96184.28;;;-5.55;75.75
68508;BME280;55510;49.560;19.090;2023-01-30T06:12:39;96175.94;;;-5.48;75.03
68508;BME280;55510;49.560;19.090;2023-01-30T06:15:40;96182.91;;;-5.49;75.31
68508;BME280;55510;49.560;19.090;2023-01-30T06:18:41;96179.66;;;-5.51;75.00
68508;BME280;55510;49.560;19.090;2023-01-30T06:21:41;96171.34;;;-5.55;75.51
68508;BME280;55510;49.560;19.090;2023-01-30T06:24:42;96181.88;;;-5.56;75.45
68508;BME280;55510;49.560;19.090;2023-01-30T06:27:44;96180.19;;;-5.47;75.77
68508;BME280;55510;49.560;19.090;2023-01-30T06:30:45;96175.13;;;-5.49;77.04
68508;BME280;55510;49.560;19.090;2023-01-30T06:33:46;96175.13;;;-5.31;76.72
68508;BME280;55510;49.560;19.090;2023-01-30T06:36:48;96164.44;;;-5.28;76.76
68508;BME280;55510;49.560;19.090;2023-01-30T06:39:49;96160.22;;;-5.11;75.48
68508;BME280;55510;49.560;19.090;2023-01-30T06:42:50;96140.41;;;-5.12;75.16
68508;BME280;55510;49.560;19.090;2023-01-30T06:45:50;96138.78;;;-5.13;74.61
68508;BME280;55510;49.560;19.090;2023-01-30T06:48:51;96139.38;;;-5.01;74.25
68508;BME280;55510;49.560;19.090;2023-01-30T06:51:52;96138.19;;;-5.06;74.18
68508;BME280;55510;49.560;19.090;2023-01-30T06:54:53;96126.75;;;-4.96;74.48
68508;BME280;55510;49.560;19.090;2023-01-30T06:58:01;96093.13;;;-4.97;73.67
68508;BME280;55510;49.560;19.090;2023-01-30T07:01:03;96100.00;;;-4.88;73.93
68508;BME280;55510;49.560;19.090;2023-01-30T07:04:04;96101.03;;;-4.81;73.66
68508;BME280;55510;49.560;19.090;2023-01-30T07:07:04;96108.31;;;-4.84;73.85
68508;BME280;55510;49.560;19.090;2023-01-30T07:10:06;96093.19;;;-4.89;73.82
68508;BME280;55510;49.560;19.090;2023-01-30T07:13:07;96089.16;;;-4.83;74.04
68508;BME280;55510;49.560;19.090;2023-01-30T07:16:08;96088.25;;;-4.74;74.06
68508;BME280;55510;49.560;19.090;2023-01-30T07:19:09;96079.88;;;-4.59;73.13
68508;BME280;55510;49.560;19.090;2023-01-30T07:22:09;96065.75;;;-4.57;73.30
68508;BME280;55510;49.560;19.090;2023-01-30T07:25:10;96061.22;;;-4.55;73.37
68508;BME280;55510;49.560;19.090;2023-01-30T07:28:11;96047.91;;;-4.52;73.85
68508;BME280;55510;49.560;19.090;2023-01-30T07:31:12;96049.09;;;-4.46;74.38
68508;BME280;55510;49.560;19.090;2023-01-30T07:34:12;96053.28;;;-4.53;73.82
68508;BME280;55510;49.560;19.090;2023-01-30T07:37:13;96062.41;;;-4.49;74.57
68508;BME280;55510;49.560;19.090;2023-01-30T07:40:15;96060.28;;;-4.45;74.54
68508;BME280;55510;49.560;19.090;2023-01-30T07:43:16;96070.63;;;-4.54;75.69
68508;BME280;55510;49.560;19.090;2023-01-30T07:46:17;96077.22;;;-4.41;75.67
68508;BME280;55510;49.560;19.090;2023-01-30T07:49:17;96088.72;;;-4.35;75.61
68508;BME280;55510;49.560;19.090;2023-01-30T07:52:18;96095.56;;;-4.34;76.07
68508;BME280;55510;49.560;19.090;2023-01-30T07:55:19;96111.00;;;-4.33;76.97
68508;BME280;55510;49.560;19.090;2023-01-30T07:58:19;96105.06;;;-4.17;75.59
68508;BME280;55510;49.560;19.090;2023-01-30T08:01:20;96101.91;;;-4.29;76.21
68508;BME280;55510;49.560;19.090;2023-01-30T08:04:21;96097.25;;;-4.17;75.84
68508;BME280;55510;49.560;19.090;2023-01-30T08:07:23;96093.69;;;-4.08;76.08
68508;BME280;55510;49.560;19.090;2023-01-30T08:10:24;96089.31;;;-4.07;75.88
68508;BME280;55510;49.560;19.090;2023-01-30T08:13:25;96080.53;;;-4.14;76.44
68508;BME280;55510;49.560;19.090;2023-01-30T08:16:26;96079.53;;;-4.13;76.24
68508;BME280;55510;49.560;19.090;2023-01-30T08:19:27;96068.84;;;-4.10;76.28
68508;BME280;55510;49.560;19.090;2023-01-30T08:22:28;96065.56;;;-4.12;76.48
68508;BME280;55510;49.560;19.090;2023-01-30T08:25:29;96057.44;;;-4.26;76.99
68508;BME280;55510;49.560;19.090;2023-01-30T08:28:30;96043.34;;;-4.06;76.47
68508;BME280;55510;49.560;19.090;2023-01-30T08:31:31;96041.22;;;-4.11;76.67
68508;BME280;55510;49.560;19.090;2023-01-30T08:34:31;96029.19;;;-4.12;76.75
68508;BME280;55510;49.560;19.090;2023-01-30T08:37:32;96011.97;;;-4.05;77.35
68508;BME280;55510;49.560;19.090;2023-01-30T08:40:34;96018.78;;;-4.12;77.33
68508;BME280;55510;49.560;19.090;2023-01-30T08:43:35;96012.28;;;-4.16;77.64
68508;BME280;55510;49.560;19.090;2023-01-30T08:46:37;96013.28;;;-4.09;77.60
68508;BME280;55510;49.560;19.090;2023-01-30T08:49:38;96018.00;;;-4.13;78.24
68508;BME280;55510;49.560;19.090;2023-01-30T08:52:39;96014.63;;;-3.97;78.68
68508;BME280;55510;49.560;19.090;2023-01-30T08:55:40;96007.94;;;-3.83;78.12
68508;BME280;55510;49.560;19.090;2023-01-30T08:58:40;96012.66;;;-3.86;78.04
68508;BME280;55510;49.560;19.090;2023-01-30T09:01:43;96004.53;;;-3.75;77.75
68508;BME280;55510;49.560;19.090;2023-01-30T09:04:44;95986.81;;;-3.71;78.13
68508;BME280;55510;49.560;19.090;2023-01-30T09:07:44;95985.34;;;-3.74;78.08
68508;BME280;55510;49.560;19.090;2023-01-30T09:10:45;95982.94;;;-3.75;77.71
68508;BME280;55510;49.560;19.090;2023-01-30T09:13:46;95979.81;;;-3.71;77.80
68508;BME280;55510;49.560;19.090;2023-01-30T09:16:47;95980.81;;;-3.72;77.98
68508;BME280;55510;49.560;19.090;2023-01-30T09:19:49;95979.16;;;-3.65;77.17
68508;BME280;55510;49.560;19.090;2023-01-30T09:22:49;95990.56;;;-3.74;77.74
68508;BME280;55510;49.560;19.090;2023-01-30T09:25:50;95992.50;;;-3.92;78.61
68508;BME280;55510;49.560;19.090;2023-01-30T09:28:50;95983.56;;;-3.90;78.61
68508;BME280;55510;49.560;19.090;2023-01-30T09:31:51;95979.50;;;-3.84;77.88
68508;BME280;55510;49.560;19.090;2023-01-30T09:34:52;95978.03;;;-3.87;78.42
68508;BME280;55510;49.560;19.090;2023-01-30T09:37:53;95970.09;;;-3.94;79.71
68508;BME280;55510;49.560;19.090;2023-01-30T09:41:12;95967.31;;;-3.92;79.75
68508;BME280;55510;49.560;19.090;2023-01-30T09:54:31;95948.13;;;-3.91;79.70
68508;BME280;55510;49.560;19.090;2023-01-30T09:57:34;95953.00;;;-3.80;79.85
68508;BME280;55510;49.560;19.090;2023-01-30T10:00:39;95933.84;;;-3.87;80.25
68508;BME280;55510;49.560;19.090;2023-01-30T10:04:12;95936.41;;;-3.79;80.85
68508;BME280;55510;49.560;19.090;2023-01-30T10:07:31;95928.78;;;-3.72;80.52
68508;BME280;55510;49.560;19.090;2023-01-30T10:14:00;95914.13;;;-3.56;79.74
68508;BME280;55510;49.560;19.090;2023-01-30T10:17:28;95905.00;;;-3.44;79.21
68508;BME280;55510;49.560;19.090;2023-01-30T10:27:25;95894.59;;;-3.44;79.18
68508;BME280;55510;49.560;19.090;2023-01-30T10:30:29;95909.25;;;-3.59;79.97
68508;BME280;55510;49.560;19.090;2023-01-30T10:37:11;95890.19;;;-3.43;79.26
68508;BME280;55510;49.560;19.090;2023-01-30T10:43:40;95884.84;;;-3.42;79.42
68508;BME280;55510;49.560;19.090;2023-01-30T10:49:55;95880.44;;;-3.01;79.48
68508;BME280;55510;49.560;19.090;2023-01-30T10:56:16;95866.69;;;-2.87;80.03
68508;BME280;55510;49.560;19.090;2023-01-30T11:03:03;95829.25;;;-2.86;81.21
68508;BME280;55510;49.560;19.090;2023-01-30T11:06:11;95826.34;;;-2.91;81.79
68508;BME280;55510;49.560;19.090;2023-01-30T11:09:16;95814.03;;;-2.74;81.25
68508;BME280;55510;49.560;19.090;2023-01-30T11:12:38;95805.00;;;-2.63;82.53
68508;BME280;55510;49.560;19.090;2023-01-30T11:15:40;95804.47;;;-2.58;82.63
68508;BME280;55510;49.560;19.090;2023-01-30T11:18:48;95813.09;;;-2.58;82.55
68508;BME280;55510;49.560;19.090;2023-01-30T11:21:52;95812.22;;;-2.73;83.83
68508;BME280;55510;49.560;19.090;2023-01-30T11:25:04;95815.31;;;-2.70;83.92
68508;BME280;55510;49.560;19.090;2023-01-30T11:28:05;95814.78;;;-2.65;84.28
68508;BME280;55510;49.560;19.090;2023-01-30T11:31:17;95802.44;;;-2.95;85.22
68508;BME280;55510;49.560;19.090;2023-01-30T11:34:20;95790.88;;;-2.92;85.59
68508;BME280;55510;49.560;19.090;2023-01-30T11:40:29;95782.09;;;-2.91;86.72
68508;BME280;55510;49.560;19.090;2023-01-30T11:43:32;95770.19;;;-2.85;86.91
68508;BME280;55510;49.560;19.090;2023-01-30T11:46:37;95752.38;;;-2.82;86.31
68508;BME280;55510;49.560;19.090;2023-01-30T11:49:42;95759.28;;;-2.89;86.72
68508;BME280;55510;49.560;19.090;2023-01-30T11:52:44;95757.78;;;-3.07;87.54
68508;BME280;55510;49.560;19.090;2023-01-30T11:55:45;95741.28;;;-2.99;87.65
68508;BME280;55510;49.560;19.090;2023-01-30T11:58:58;95741.28;;;-2.99;86.60
68508;BME280;55510;49.560;19.090;2023-01-30T12:02:20;95746.53;;;-2.84;85.96
68508;BME280;55510;49.560;19.090;2023-01-30T12:05:30;95726.66;;;-3.00;85.60
68508;BME280;55510;49.560;19.090;2023-01-30T12:08:39;95736.59;;;-2.80;84.29
68508;BME280;55510;49.560;19.090;2023-01-30T12:11:41;95734.16;;;-2.82;85.01
68508;BME280;55510;49.560;19.090;2023-01-30T12:14:45;95721.22;;;-2.90;84.43
68508;BME280;55510;49.560;19.090;2023-01-30T12:21:22;95727.97;;;-2.81;85.72
68508;BME280;55510;49.560;19.090;2023-01-30T12:28:01;95727.63;;;-2.78;86.69
68508;BME280;55510;49.560;19.090;2023-01-30T12:31:36;95705.78;;;-2.77;86.45
68508;BME280;55510;49.560;19.090;2023-01-30T12:34:39;95712.69;;;-2.84;86.96
68508;BME280;55510;49.560;19.090;2023-01-30T12:41:22;95711.91;;;-2.69;85.95
68508;BME280;55510;49.560;19.090;2023-01-30T12:58:47;95701.94;;;-2.81;88.91
68508;BME280;55510;49.560;19.090;2023-01-30T13:08:51;95689.44;;;-2.85;88.52
68508;BME280;55510;49.560;19.090;2023-01-30T13:18:31;95678.44;;;-2.57;86.99
68508;BME280;55510;49.560;19.090;2023-01-30T13:21:35;95675.56;;;-2.63;86.56
68508;BME280;55510;49.560;19.090;2023-01-30T13:25:12;95675.81;;;-2.57;86.76
68508;BME280;55510;49.560;19.090;2023-01-30T13:28:25;95697.03;;;-2.45;87.15
68508;BME280;55510;49.560;19.090;2023-01-30T13:31:31;95682.41;;;-2.46;87.76
68508;BME280;55510;49.560;19.090;2023-01-30T13:34:37;95664.69;;;-2.36;88.36
68508;BME280;55510;49.560;19.090;2023-01-30T13:37:40;95666.94;;;-2.33;88.71
68508;BME280;55510;49.560;19.090;2023-01-30T13:40:42;95670.44;;;-2.56;89.98
68508;BME280;55510;49.560;19.090;2023-01-30T13:43:50;95680.88;;;-2.56;90.80
68508;BME280;55510;49.560;19.090;2023-01-30T13:46:53;95667.84;;;-2.56;91.36
68508;BME280;55510;49.560;19.090;2023-01-30T13:56:32;95658.91;;;-2.77;93.44
68508;BME280;55510;49.560;19.090;2023-01-30T14:06:35;95648.47;;;-3.07;95.99
68508;BME280;55510;49.560;19.090;2023-01-30T14:09:43;95649.72;;;-3.02;95.97
68508;BME280;55510;49.560;19.090;2023-01-30T14:12:48;95648.47;;;-3.07;96.87
68508;BME280;55510;49.560;19.090;2023-01-30T14:16:04;95649.00;;;-2.96;96.39
68508;BME280;55510;49.560;19.090;2023-01-30T14:25:54;95652.41;;;-2.96;94.83
68508;BME280;55510;49.560;19.090;2023-01-30T14:28:58;95643.88;;;-2.89;95.01
68508;BME280;55510;49.560;19.090;2023-01-30T14:31:59;95648.03;;;-2.95;95.03
68508;BME280;55510;49.560;19.090;2023-01-30T14:44:06;95657.19;;;-2.99;91.85
68508;BME280;55510;49.560;19.090;2023-01-30T14:47:18;95652.16;;;-2.86;91.07
68508;BME280;55510;49.560;19.090;2023-01-30T14:50:21;95645.97;;;-2.85;91.25
68508;BME280;55510;49.560;19.090;2023-01-30T14:53:23;95655.13;;;-2.89;91.51
68508;BME280;55510;49.560;19.090;2023-01-30T14:56:40;95657.94;;;-2.75;90.91
68508;BME280;55510;49.560;19.090;2023-01-30T14:59:52;95654.97;;;-2.72;90.84
68508;BME280;55510;49.560;19.090;2023-01-30T15:02:58;95652.44;;;-2.81;91.50
68508;BME280;55510;49.560;19.090;2023-01-30T15:06:00;95658.41;;;-2.57;90.68
68508;BME280;55510;49.560;19.090;2023-01-30T15:09:00;95644.13;;;-2.61;90.93
68508;BME280;55510;49.560;19.090;2023-01-30T15:12:14;95640.91;;;-2.63;90.81
68508;BME280;55510;49.560;19.090;2023-01-30T15:22:11;95641.59;;;-2.39;90.26
68508;BME280;55510;49.560;19.090;2023-01-30T15:32:16;95617.78;;;-2.36;89.89
68508;BME280;55510;49.560;19.090;2023-01-30T15:38:30;95629.03;;;-2.21;90.08
68508;BME280;55510;49.560;19.090;2023-01-30T15:41:38;95622.91;;;-2.28;90.11
68508;BME280;55510;49.560;19.090;2023-01-30T15:44:56;95614.91;;;-2.26;90.47
68508;BME280;55510;49.560;19.090;2023-01-30T15:51:02;95626.31;;;-2.27;90.20
68508;BME280;55510;49.560;19.090;2023-01-30T15:54:08;95637.81;;;-2.22;90.22
68508;BME280;55510;49.560;19.090;2023-01-30T15:57:12;95641.13;;;-2.13;90.43
68508;BME280;55510;49.560;19.090;2023-01-30T16:00:26;95649.41;;;-2.09;90.46
68508;BME280;55510;49.560;19.090;2023-01-30T16:03:31;95661.00;;;-2.12;90.00
68508;BME280;55510;49.560;19.090;2023-01-30T16:06:36;95652.66;;;-2.07;90.55
68508;BME280;55510;49.560;19.090;2023-01-30T16:09:37;95656.50;;;-2.03;90.74
68508;BME280;55510;49.560;19.090;2023-01-30T16:12:37;95649.34;;;-1.79;89.21
68508;BME280;55510;49.560;19.090;2023-01-30T16:18:58;95669.66;;;-1.75;88.84
68508;BME280;55510;49.560;19.090;2023-01-30T16:22:04;95683.56;;;-1.89;89.83
68508;BME280;55510;49.560;19.090;2023-01-30T16:25:15;95664.72;;;-1.69;89.81
68508;BME280;55510;49.560;19.090;2023-01-30T16:28:19;95659.19;;;-1.59;89.03
68508;BME280;55510;49.560;19.090;2023-01-30T16:31:20;95660.69;;;-1.50;88.38
68508;BME280;55510;49.560;19.090;2023-01-30T16:34:34;95662.06;;;-1.54;88.65
68508;BME280;55510;49.560;19.090;2023-01-30T16:37:35;95676.22;;;-1.64;88.97
68508;BME280;55510;49.560;19.090;2023-01-30T16:40:44;95691.97;;;-1.72;89.96
68508;BME280;55510;49.560;19.090;2023-01-30T16:43:45;95684.31;;;-1.58;90.43
68508;BME280;55510;49.560;19.090;2023-01-30T16:49:56;95683.06;;;-1.41;90.35
68508;BME280;55510;49.560;19.090;2023-01-30T16:52:57;95685.66;;;-1.63;91.34
68508;BME280;55510;49.560;19.090;2023-01-30T16:59:01;95681.34;;;-1.70;91.24
68508;BME280;55510;49.560;19.090;2023-01-30T17:02:04;95675.97;;;-1.69;91.04
68508;BME280;55510;49.560;19.090;2023-01-30T17:05:23;95690.28;;;-1.80;91.06
68508;BME280;55510;49.560;19.090;2023-01-30T17:11:33;95705.41;;;-1.75;91.48
68508;BME280;55510;49.560;19.090;2023-01-30T17:14:34;95702.47;;;-1.65;91.39
68508;BME280;55510;49.560;19.090;2023-01-30T17:17:35;95692.91;;;-1.58;91.40
68508;BME280;55510;49.560;19.090;2023-01-30T17:20:37;95691.94;;;-1.57;91.43
68508;BME280;55510;49.560;19.090;2023-01-30T17:23:45;95689.94;;;-1.55;92.12
68508;BME280;55510;49.560;19.090;2023-01-30T17:26:48;95696.16;;;-1.56;92.26
68508;BME280;55510;49.560;19.090;2023-01-30T17:29:50;95696.97;;;-1.55;92.40
68508;BME280;55510;49.560;19.090;2023-01-30T17:32:50;95700.13;;;-1.60;92.39
68508;BME280;55510;49.560;19.090;2023-01-30T17:35:51;95692.50;;;-1.62;92.48
68508;BME280;55510;49.560;19.090;2023-01-30T17:38:52;95694.13;;;-1.61;92.74
68508;BME280;55510;49.560;19.090;2023-01-30T17:41:53;95661.56;;;-1.65;93.10
68508;BME280;55510;49.560;19.090;2023-01-30T17:44:53;95652.06;;;-1.51;92.82
68508;BME280;55510;49.560;19.090;2023-01-30T17:47:54;95656.47;;;-1.51;92.28
68508;BME280;55510;49.560;19.090;2023-01-30T17:50:55;95662.34;;;-1.64;92.04
68508;BME280;55510;49.560;19.090;2023-01-30T17:53:56;95661.19;;;-1.62;91.65
68508;BME280;55510;49.560;19.090;2023-01-30T17:57:03;95657.22;;;-1.57;91.94
68508;BME280;55510;49.560;19.090;2023-01-30T18:00:04;95658.72;;;-1.48;91.92
68508;BME280;55510;49.560;19.090;2023-01-30T18:03:05;95668.03;;;-1.39;90.64
68508;BME280;55510;49.560;19.090;2023-01-30T18:06:07;95666.84;;;-1.36;90.44
68508;BME280;55510;49.560;19.090;2023-01-30T18:09:13;95669.84;;;-1.39;90.47
68508;BME280;55510;49.560;19.090;2023-01-30T18:12:15;95668.91;;;-1.53;91.17
68508;BME280;55510;49.560;19.090;2023-01-30T18:15:15;95666.53;;;-1.48;91.64
68508;BME280;55510;49.560;19.090;2023-01-30T18:18:17;95660.41;;;-1.40;91.23
68508;BME280;55510;49.560;19.090;2023-01-30T18:21:18;95658.97;;;-1.21;90.60
68508;BME280;55510;49.560;19.090;2023-01-30T18:24:21;95663.81;;;-1.18;90.28
68508;BME280;55510;49.560;19.090;2023-01-30T18:27:22;95671.44;;;-1.17;90.95
68508;BME280;55510;49.560;19.090;2023-01-30T18:30:23;95667.81;;;-1.22;91.09
68508;BME280;55510;49.560;19.090;2023-01-30T18:33:24;95666.47;;;-1.11;90.99
68508;BME280;55510;49.560;19.090;2023-01-30T18:36:25;95670.53;;;-1.09;90.96
68508;BME280;55510;49.560;19.090;2023-01-30T18:39:25;95663.31;;;-1.07;90.86
68508;BME280;55510;49.560;19.090;2023-01-30T18:42:26;95678.63;;;-1.25;91.41
68508;BME280;55510;49.560;19.090;2023-01-30T18:45:27;95666.97;;;-1.23;92.35
68508;BME280;55510;49.560;19.090;2023-01-30T18:48:29;95659.47;;;-1.11;91.79
68508;BME280;55510;49.560;19.090;2023-01-30T18:51:31;95657.09;;;-1.06;91.66
68508;BME280;55510;49.560;19.090;2023-01-30T18:54:32;95659.47;;;-1.11;91.55
